Time;durP1;ratioP1;P1;durP2;ratioP2;P2;SDS_P1;SDS_P2;PMS_P1;PMS_P2;Temp;Humidity;BMP_temperature;BMP_pressure;BME280_temperature;BME280_humidity;BME280_pressure;Samples;Min_cycle;Max_cycle;Signal;HPM_P1;HPM_P2
2022/08/23 00:00:24;;;;;;;;;7.80;7.80;;;;;21.04;51.81;99672.50;5074632;28;8840;-64
2022/08/23 00:02:53;;;;;;;;;8.60;7.80;;;;;20.96;51.78;99671.81;5075234;28;8929;-64
2022/08/23 00:05:21;;;;;;;;;12.00;10.20;;;;;20.88;51.99;99671.09;5075400;28;8828;-64
2022/08/23 00:07:48;;;;;;;;;8.40;8.20;;;;;20.78;52.28;99663.25;5075572;28;9525;-63
2022/08/23 00:10:16;;;;;;;;;8.00;8.00;;;;;20.69;52.50;99664.41;5077241;28;8848;-63
2022/08/23 00:12:44;;;;;;;;;7.60;6.80;;;;;20.60;52.74;99660.16;5079508;28;8840;-64
2022/08/23 00:15:12;;;;;;;;;8.80;8.80;;;;;20.52;52.86;99665.72;5079599;28;8856;-63
2022/08/23 00:17:41;;;;;;;;;10.20;8.40;;;;;20.43;53.25;99672.28;5079403;28;8928;-63
2022/08/23 00:20:08;;;;;;;;;5.00;5.00;;;;;20.34;52.93;99670.69;5079716;28;8848;-63
2022/08/23 00:22:36;;;;;;;;;9.20;8.00;;;;;20.26;53.42;99676.22;5079308;28;8933;-64
2022/08/23 00:25:04;;;;;;;;;8.20;8.00;;;;;20.19;53.46;99671.78;5079229;28;9525;-63
2022/08/23 00:27:32;;;;;;;;;10.60;10.60;;;;;20.12;53.86;99676.25;5078911;28;8836;-63
2022/08/23 00:30:00;;;;;;;;;11.40;10.20;;;;;20.05;53.68;99668.06;5079469;28;9533;-63
2022/08/23 00:32:28;;;;;;;;;13.80;13.60;;;;;19.99;53.63;99667.94;5078947;28;8849;-62
2022/08/23 00:34:55;;;;;;;;;10.80;10.60;;;;;19.94;53.91;99665.81;5079055;28;8828;-63
2022/08/23 00:37:23;;;;;;;;;14.00;11.80;;;;;19.89;53.82;99662.81;5079183;28;8992;-64
2022/08/23 00:39:51;;;;;;;;;11.00;10.20;;;;;19.84;53.85;99670.66;5078944;28;8840;-64
2022/08/23 00:47:56;;;;;;;;;13.80;10.60;;;;;19.63;54.07;99659.75;5078691;28;8844;-64
2022/08/23 00:50:24;;;;;;;;;12.00;9.60;;;;;19.57;54.64;99663.19;5078757;28;8854;-64
2022/08/23 00:52:52;;;;;;;;;10.00;8.00;;;;;19.51;54.21;99663.94;5078472;28;8836;-63
2022/08/23 00:55:20;;;;;;;;;10.80;10.20;;;;;19.43;54.64;99655.91;5079145;28;8839;-64
2022/08/23 00:57:48;;;;;;;;;10.20;10.20;;;;;19.37;54.93;99654.00;5078562;28;8840;-63
2022/08/23 01:00:15;;;;;;;;;10.20;9.60;;;;;19.30;54.65;99657.59;5078525;28;8843;-64
2022/08/23 01:02:43;;;;;;;;;7.00;6.60;;;;;19.23;54.72;99653.94;5078626;28;8894;-64
2022/08/23 01:05:11;;;;;;;;;7.60;7.00;;;;;19.15;55.49;99652.16;5077737;28;8862;-63
2022/08/23 01:07:40;;;;;;;;;9.60;9.60;;;;;19.07;55.57;99646.84;5078393;28;8832;-64
2022/08/23 01:10:08;;;;;;;;;11.40;10.20;;;;;18.99;55.39;99652.31;5077542;28;8928;-64
2022/08/23 01:12:46;;;;;;;;;9.80;9.80;;;;;18.94;55.36;99652.00;5077979;28;8836;-64
2022/08/23 01:15:14;;;;;;;;;10.60;10.60;;;;;18.90;55.66;99655.25;5078004;28;8828;-62
2022/08/23 01:17:43;;;;;;;;;10.20;10.00;;;;;18.87;55.81;99652.91;5078273;28;8863;-62
2022/08/23 01:20:10;;;;;;;;;7.00;7.00;;;;;18.84;55.38;99651.41;5078870;28;8855;-62
2022/08/23 01:22:40;;;;;;;;;10.40;9.80;;;;;18.83;55.46;99651.59;5075557;28;8839;-62
2022/08/23 01:25:08;;;;;;;;;10.40;9.60;;;;;18.82;55.82;99656.13;5077681;28;8832;-62
2022/08/23 01:27:36;;;;;;;;;7.00;5.80;;;;;18.83;55.45;99657.00;5078215;28;8828;-62
2022/08/23 01:30:04;;;;;;;;;11.60;10.80;;;;;18.83;55.17;99655.13;5077944;28;9500;-63
2022/08/23 01:32:32;;;;;;;;;10.00;9.60;;;;;18.86;55.92;99654.78;5078152;28;8844;-63
2022/08/23 01:35:00;;;;;;;;;11.40;11.40;;;;;18.90;55.92;99661.47;5078428;28;9278;-62
2022/08/23 01:37:28;;;;;;;;;7.00;6.40;;;;;18.92;55.07;99656.75;5078323;28;8848;-63
2022/08/23 01:39:56;;;;;;;;;10.60;10.00;;;;;18.95;55.31;99658.22;5077383;28;8848;-62
2022/08/23 01:42:23;;;;;;;;;10.40;9.60;;;;;18.97;54.97;99659.72;5077853;28;8843;-62
2022/08/23 01:44:51;;;;;;;;;8.80;8.20;;;;;18.99;55.00;99662.25;5077636;28;8831;-64
2022/08/23 01:47:19;;;;;;;;;11.00;11.00;;;;;19.00;55.54;99663.91;5077412;28;8856;-62
2022/08/23 01:49:47;;;;;;;;;9.80;8.20;;;;;19.01;55.56;99660.19;5077505;28;9533;-62
2022/08/23 01:52:16;;;;;;;;;10.00;10.00;;;;;19.03;55.24;99664.41;5077673;28;8843;-62
2022/08/23 01:54:43;;;;;;;;;11.20;11.00;;;;;19.03;55.55;99666.28;5077446;28;8844;-64
2022/08/23 01:57:11;;;;;;;;;8.20;8.20;;;;;19.00;54.66;99661.22;5077729;28;8832;-62
2022/08/23 01:59:39;;;;;;;;;8.80;8.80;;;;;18.96;55.49;99663.44;5077684;28;8836;-62
2022/08/23 02:02:07;;;;;;;;;8.40;8.20;;;;;18.92;55.17;99664.84;5077416;28;8929;-62
2022/08/23 02:04:35;;;;;;;;;11.40;9.60;;;;;18.89;55.64;99665.19;5077552;28;8828;-62
2022/08/23 02:07:02;;;;;;;;;9.60;8.80;;;;;18.86;55.46;99660.16;5077514;28;8854;-62
2022/08/23 02:09:31;;;;;;;;;10.00;8.20;;;;;18.82;55.50;99655.31;5077514;28;8843;-62
2022/08/23 02:11:59;;;;;;;;;9.00;9.00;;;;;18.79;55.19;99661.91;5077357;28;8828;-62
2022/08/23 02:14:27;;;;;;;;;10.20;10.20;;;;;18.78;55.32;99660.22;5077169;28;8824;-62
2022/08/23 02:16:57;;;;;;;;;8.20;8.20;;;;;18.77;56.10;99669.34;5077053;28;8929;-62
2022/08/23 02:19:31;;;;;;;;;9.00;8.20;;;;;18.73;56.27;99664.50;5076987;28;8925;-61
2022/08/23 02:21:59;;;;;;;;;9.60;9.60;;;;;18.72;55.83;99660.09;5077389;28;8828;-62
2022/08/23 02:24:27;;;;;;;;;8.80;7.00;;;;;18.69;56.00;99660.47;5077301;28;8820;-61
2022/08/23 02:26:55;;;;;;;;;13.40;12.60;;;;;18.66;55.58;99664.38;5076838;28;8917;-62
2022/08/23 02:29:23;;;;;;;;;12.00;12.00;;;;;18.65;56.23;99662.69;5077298;28;8925;-62
2022/08/23 02:31:51;;;;;;;;;9.20;7.60;;;;;18.63;56.12;99664.75;5076800;28;8931;-62
2022/08/23 02:34:19;;;;;;;;;8.40;8.40;;;;;18.60;56.08;99667.78;5076269;28;8881;-62
2022/08/23 02:36:47;;;;;;;;;12.00;11.80;;;;;18.58;56.17;99661.72;5077079;28;8894;-62
2022/08/23 02:39:15;;;;;;;;;10.00;10.00;;;;;18.55;56.45;99664.78;5076618;28;9514;-61
2022/08/23 02:41:43;;;;;;;;;12.40;10.00;;;;;18.53;56.20;99666.81;5076446;28;8820;-62
2022/08/23 02:44:10;;;;;;;;;9.00;7.60;;;;;18.51;56.00;99671.56;5076358;28;8825;-62
2022/08/23 02:46:38;;;;;;;;;11.80;11.80;;;;;18.48;56.47;99671.91;5077593;28;8850;-62
2022/08/23 02:49:06;;;;;;;;;11.80;10.80;;;;;18.45;56.93;99671.44;5078465;28;8816;-63
2022/08/23 02:51:34;;;;;;;;;12.60;10.60;;;;;18.44;56.37;99673.28;5096788;28;8834;-62
2022/08/23 02:54:02;;;;;;;;;9.80;9.00;;;;;18.42;56.41;99671.78;5096495;28;8822;-62
2022/08/23 02:56:30;;;;;;;;;9.60;9.20;;;;;18.38;56.27;99668.59;5084026;28;8820;-62
2022/08/23 02:58:59;;;;;;;;;10.00;9.80;;;;;18.37;56.53;99671.50;5076630;28;8871;-62
2022/08/23 03:01:27;;;;;;;;;9.20;9.20;;;;;18.37;56.38;99672.31;5076177;28;9521;-62
2022/08/23 03:03:55;;;;;;;;;13.00;12.20;;;;;18.36;56.37;99676.03;5077001;28;8850;-62
2022/08/23 03:06:23;;;;;;;;;9.00;9.00;;;;;18.32;56.62;99669.34;5076014;28;8866;-63
2022/08/23 03:08:53;;;;;;;;;10.00;10.00;;;;;18.31;56.96;99673.06;5074210;28;8812;-62
2022/08/23 03:11:21;;;;;;;;;11.20;11.20;;;;;18.31;56.60;99673.06;5074831;28;8914;-62
2022/08/23 03:13:49;;;;;;;;;11.60;10.80;;;;;18.29;56.48;99672.34;5074906;28;8828;-62
2022/08/23 03:16:16;;;;;;;;;7.00;7.00;;;;;18.27;56.41;99670.81;5086654;28;8914;-62
2022/08/23 03:18:45;;;;;;;;;11.20;10.00;;;;;18.25;56.73;99675.56;5097265;28;8895;-62
2022/08/23 03:21:13;;;;;;;;;10.00;9.60;;;;;18.22;56.69;99674.06;5096820;28;8842;-62
2022/08/23 03:23:40;;;;;;;;;9.00;9.00;;;;;18.19;57.05;99685.19;5096813;28;9592;-62
2022/08/23 03:26:08;;;;;;;;;10.00;9.80;;;;;18.19;57.16;99677.13;5086956;28;8860;-62
2022/08/23 03:28:36;;;;;;;;;10.00;9.60;;;;;18.19;57.07;99679.81;5076454;28;8836;-62
2022/08/23 03:31:04;;;;;;;;;11.20;9.20;;;;;18.20;56.88;99686.03;5075627;28;8828;-63
2022/08/23 03:33:32;;;;;;;;;9.60;9.40;;;;;18.21;56.69;99683.16;5089977;28;8826;-63
2022/08/23 03:36:00;;;;;;;;;6.80;6.80;;;;;18.24;56.75;99685.53;5096051;28;8844;-63
2022/08/23 03:38:28;;;;;;;;;3.00;2.60;;;;;18.25;56.94;99673.72;5096386;28;8826;-62
2022/08/23 03:40:55;;;;;;;;;10.00;9.00;;;;;18.27;56.93;99681.59;5096330;28;8846;-63
2022/08/23 03:43:23;;;;;;;;;11.80;10.40;;;;;18.28;56.93;99684.13;5082872;28;8908;-62
2022/08/23 03:45:52;;;;;;;;;9.40;9.40;;;;;18.30;56.47;99684.00;5075213;28;8820;-68
2022/08/23 03:48:19;;;;;;;;;10.00;6.00;;;;;18.29;56.33;99676.91;5075949;28;8851;-65
2022/08/23 03:50:47;;;;;;;;;11.00;9.80;;;;;18.30;57.03;99681.31;5075817;28;8820;-62
2022/08/23 03:53:16;;;;;;;;;7.00;6.40;;;;;18.28;56.68;99686.00;5075871;28;8808;-62
2022/08/23 03:55:44;;;;;;;;;9.80;9.60;;;;;18.25;56.58;99683.66;5075612;28;8836;-62
2022/08/23 03:58:12;;;;;;;;;7.00;7.00;;;;;18.22;56.64;99684.03;5076245;28;8836;-62
2022/08/23 04:00:39;;;;;;;;;4.80;4.80;;;;;18.20;57.00;99692.28;5076070;28;8864;-63
2022/08/23 04:03:07;;;;;;;;;7.00;7.00;;;;;18.17;56.43;99689.94;5086132;28;8882;-63
2022/08/23 04:05:35;;;;;;;;;9.60;9.00;;;;;18.15;56.51;99700.03;5077223;28;8824;-63
2022/08/23 04:08:03;;;;;;;;;9.80;9.80;;;;;18.14;57.00;99698.34;5074836;28;8909;-63
2022/08/23 04:10:32;;;;;;;;;10.00;10.00;;;;;18.11;56.58;99704.13;5073918;28;8940;-63
2022/08/23 04:13:00;;;;;;;;;6.60;6.40;;;;;18.09;56.56;99705.31;5075258;28;8925;-64
2022/08/23 04:15:28;;;;;;;;;7.00;7.00;;;;;18.06;56.74;99706.47;5090869;28;8829;-63
2022/08/23 04:17:55;;;;;;;;;7.00;6.60;;;;;18.05;56.70;99706.66;5095160;28;9520;-62
2022/08/23 04:20:24;;;;;;;;;7.80;7.80;;;;;18.01;56.71;99711.59;5095836;28;8838;-63
2022/08/23 04:22:53;;;;;;;;;8.60;8.60;;;;;17.98;57.33;99711.91;5095356;28;8826;-62
2022/08/23 04:25:21;;;;;;;;;9.40;9.40;;;;;17.96;56.84;99713.94;5080418;28;8905;-62
2022/08/23 04:28:01;;;;;;;;;7.00;7.00;;;;;17.92;56.89;99709.91;5075588;28;8851;-63
2022/08/23 04:30:31;;;;;;;;;10.00;9.60;;;;;17.88;57.05;99716.66;5075292;28;8843;-63
2022/08/23 04:32:58;;;;;;;;;7.20;7.20;;;;;17.85;56.98;99718.88;5073886;28;8871;-62
2022/08/23 04:35:28;;;;;;;;;9.50;8.50;;;;;17.81;57.59;99723.78;5088404;28;8814;-64
2022/08/23 04:37:56;;;;;;;;;11.20;11.20;;;;;17.78;56.95;99726.78;5093488;28;8826;-61
2022/08/23 04:43:09;;;;;;;;;9.00;8.50;;;;;17.72;57.51;99730.19;5093169;28;8869;-62
2022/08/23 04:45:37;;;;;;;;;9.60;7.80;;;;;17.72;57.70;99737.44;5075564;28;8923;-62
2022/08/23 04:48:05;;;;;;;;;9.00;9.00;;;;;17.70;57.79;99740.28;5073400;28;8846;-62
2022/08/23 04:50:39;;;;;;;;;10.00;10.00;;;;;17.72;57.68;99740.13;5074068;28;8860;-63
2022/08/23 04:53:06;;;;;;;;;8.40;8.00;;;;;17.73;57.73;99748.03;5074142;28;8859;-61
2022/08/23 04:55:34;;;;;;;;;9.00;8.50;;;;;17.74;57.18;99752.41;5090670;28;9472;-63
2022/08/23 04:58:04;;;;;;;;;12.50;12.50;;;;;17.76;57.30;99758.47;5098942;28;8822;-63
2022/08/23 05:00:32;;;;;;;;;10.00;10.00;;;;;17.77;57.24;99754.75;5097892;28;8834;-61
2022/08/23 05:03:00;;;;;;;;;10.00;8.60;;;;;17.81;57.15;99758.78;5097954;28;8884;-62
2022/08/23 05:05:28;;;;;;;;;7.50;7.50;;;;;17.84;56.88;99757.59;5082509;28;8822;-62
2022/08/23 05:07:55;;;;;;;;;9.50;9.50;;;;;17.91;56.94;99756.72;5076734;28;8828;-61
2022/08/23 05:10:23;;;;;;;;;10.25;9.50;;;;;17.97;56.50;99769.53;5076928;28;8872;-61
2022/08/23 05:12:51;;;;;;;;;9.40;9.20;;;;;18.04;56.82;99761.56;5077328;28;8836;-61
2022/08/23 05:15:19;;;;;;;;;9.00;7.40;;;;;18.11;56.30;99755.31;5077772;28;8832;-61
2022/08/23 05:17:47;;;;;;;;;7.00;6.00;;;;;18.19;56.45;99755.28;5076148;28;8925;-62
2022/08/23 05:20:15;;;;;;;;;9.00;9.00;;;;;18.29;56.46;99755.09;5074826;28;8832;-61
2022/08/23 05:22:43;;;;;;;;;9.60;9.60;;;;;18.39;56.05;99764.69;5073982;28;8856;-61
2022/08/23 05:25:10;;;;;;;;;7.00;7.00;;;;;18.48;55.90;99765.47;5074238;28;8905;-61
2022/08/23 05:27:39;;;;;;;;;7.00;7.00;;;;;18.56;55.90;99768.13;5074515;28;8929;-61
2022/08/23 05:30:06;;;;;;;;;9.40;7.00;;;;;18.65;55.81;99770.59;5073726;28;8921;-62
2022/08/23 05:32:41;;;;;;;;;8.80;8.40;;;;;18.75;55.32;99773.91;5075097;28;8876;-62
2022/08/23 05:35:09;;;;;;;;;8.00;8.00;;;;;18.86;55.06;99778.06;5076156;28;8835;-61
2022/08/23 05:37:37;;;;;;;;;11.20;10.00;;;;;18.96;54.78;99781.38;5076754;28;8832;-63
2022/08/23 05:40:05;;;;;;;;;5.80;5.80;;;;;19.05;54.65;99780.31;5076256;28;8921;-62
2022/08/23 05:42:33;;;;;;;;;11.20;9.40;;;;;19.14;54.27;99780.06;5076420;28;10400;-62
2022/08/23 05:45:01;;;;;;;;;11.00;10.00;;;;;19.23;54.81;99779.00;5076434;28;8913;-61
2022/08/23 05:47:32;;;;;;;;;10.20;9.80;;;;;19.35;54.17;99782.94;5075759;28;8832;-62
2022/08/23 05:50:00;;;;;;;;;7.00;7.00;;;;;19.45;53.71;99786.25;5075955;28;8920;-61
2022/08/23 05:52:28;;;;;;;;;10.00;10.00;;;;;19.59;53.84;99788.16;5074840;28;8958;-61
2022/08/23 05:54:56;;;;;;;;;10.00;8.20;;;;;19.71;53.66;99789.38;5075798;28;8847;-62
2022/08/23 05:57:24;;;;;;;;;7.80;5.00;;;;;19.84;53.82;99789.59;5075122;28;8828;-61
2022/08/23 05:59:52;;;;;;;;;7.40;7.00;;;;;19.93;53.36;99788.47;5074177;28;8844;-61
2022/08/23 06:02:19;;;;;;;;;9.20;8.00;;;;;20.03;53.28;99794.44;5074603;28;8908;-62
2022/08/23 06:04:47;;;;;;;;;12.20;11.00;;;;;20.12;53.00;99793.38;5074952;28;8808;-61
2022/08/23 06:07:15;;;;;;;;;8.00;7.00;;;;;20.21;53.14;99792.25;5075303;28;8831;-61
2022/08/23 06:09:43;;;;;;;;;7.60;7.40;;;;;20.31;53.03;99797.41;5074731;28;8852;-65
2022/08/23 06:12:11;;;;;;;;;9.20;7.40;;;;;20.40;52.27;99791.69;5073920;28;8844;-61
2022/08/23 06:14:39;;;;;;;;;8.40;7.80;;;;;20.53;52.72;99796.41;5073155;28;8855;-62
2022/08/23 06:17:07;;;;;;;;;7.00;7.00;;;;;20.67;52.23;99792.84;5072529;28;8836;-61
2022/08/23 06:19:35;;;;;;;;;7.00;7.00;;;;;20.83;51.93;99801.59;5072000;28;8835;-61
2022/08/23 06:22:02;;;;;;;;;9.40;9.40;;;;;20.99;51.37;99804.09;5071466;28;8979;-62
2022/08/23 06:24:31;;;;;;;;;7.60;7.60;;;;;21.14;51.48;99791.34;5072330;28;8884;-61
2022/08/23 06:26:58;;;;;;;;;8.40;8.40;;;;;21.27;51.04;99791.50;5073195;28;8820;-61
2022/08/23 06:29:26;;;;;;;;;11.00;8.80;;;;;21.34;50.87;99789.69;5072002;28;9195;-62
2022/08/23 06:31:55;;;;;;;;;5.80;5.40;;;;;21.40;51.21;99797.03;5072341;28;8851;-61
2022/08/23 06:34:23;;;;;;;;;9.20;9.20;;;;;21.46;50.94;99798.94;5073716;28;8839;-61
2022/08/23 06:36:51;;;;;;;;;12.00;11.00;;;;;21.54;50.91;99799.66;5074122;28;9526;-62
2022/08/23 06:39:19;;;;;;;;;11.80;9.80;;;;;21.67;50.64;99805.22;5073784;28;8891;-62
2022/08/23 06:41:48;;;;;;;;;9.00;9.00;;;;;21.84;50.63;99806.63;5073019;28;8824;-61
2022/08/23 06:44:16;;;;;;;;;7.00;7.00;;;;;22.00;50.45;99800.88;5071466;28;8859;-63
2022/08/23 06:46:44;;;;;;;;;9.40;9.00;;;;;22.10;50.34;99804.06;5056278;28;8829;-61
2022/08/23 06:49:12;;;;;;;;;10.40;9.80;;;;;22.18;49.75;99805.81;5073993;28;8925;-62
2022/08/23 06:51:40;;;;;;;;;8.00;8.00;;;;;22.30;50.04;99806.94;5071500;28;8836;-62
2022/08/23 06:54:08;;;;;;;;;8.00;6.00;;;;;22.44;49.61;99801.41;5071757;28;8921;-62
2022/08/23 06:56:38;;;;;;;;;8.00;7.60;;;;;22.55;49.30;99800.81;5071910;28;8913;-62
2022/08/23 06:59:06;;;;;;;;;8.40;6.00;;;;;22.65;49.57;99800.44;5072750;28;8917;-62
2022/08/23 07:01:34;;;;;;;;;9.00;8.00;;;;;22.75;48.84;99796.31;5071379;28;8855;-62
2022/08/23 07:04:15;;;;;;;;;6.00;6.00;;;;;22.83;48.86;99800.75;5072934;28;8844;-62
2022/08/23 07:06:43;;;;;;;;;9.20;9.20;;;;;22.95;49.04;99791.81;5073495;28;8932;-62
2022/08/23 07:09:11;;;;;;;;;6.40;6.00;;;;;23.10;48.71;99799.78;5072514;28;9524;-61
2022/08/23 07:11:39;;;;;;;;;8.80;8.80;;;;;23.24;48.37;99796.94;5072898;28;8856;-62
2022/08/23 07:14:07;;;;;;;;;8.40;8.00;;;;;23.41;48.38;99800.06;5073051;28;8824;-61
2022/08/23 07:16:35;;;;;;;;;6.00;6.00;;;;;23.56;48.49;99804.28;5072728;28;8836;-61
2022/08/23 07:19:03;;;;;;;;;6.60;6.20;;;;;23.68;47.94;99816.19;5072335;28;8836;-62
2022/08/23 07:21:31;;;;;;;;;6.00;6.00;;;;;23.84;47.39;99812.22;5070818;28;8868;-62
2022/08/23 07:23:59;;;;;;;;;7.80;7.20;;;;;23.99;47.26;99813.72;5072389;28;8844;-62
2022/08/23 07:26:26;;;;;;;;;5.80;5.40;;;;;24.04;47.36;99816.63;5071451;28;8905;-61
2022/08/23 07:28:56;;;;;;;;;8.00;8.00;;;;;24.13;47.37;99817.25;5072076;28;9560;-62
2022/08/23 07:31:25;;;;;;;;;10.00;9.20;;;;;24.22;47.25;99813.25;5070865;28;8866;-61
2022/08/23 07:33:53;;;;;;;;;7.80;7.00;;;;;24.34;47.16;99811.56;5072371;28;8921;-62
2022/08/23 07:36:25;;;;;;;;;6.00;5.40;;;;;24.49;46.72;99820.34;5071172;28;8844;-62
2022/08/23 07:38:54;;;;;;;;;6.60;6.00;;;;;24.62;46.21;99818.44;5070600;28;8840;-62
2022/08/23 07:41:22;;;;;;;;;9.00;7.40;;;;;24.76;46.26;99827.38;5069810;28;9224;-62
2022/08/23 07:43:50;;;;;;;;;9.60;9.00;;;;;24.87;45.83;99822.09;5070157;28;8852;-63
2022/08/23 07:46:18;;;;;;;;;9.40;9.40;;;;;25.01;45.71;99823.72;5070673;28;8820;-62
2022/08/23 07:48:46;;;;;;;;;7.00;6.80;;;;;25.14;45.63;99820.06;5072038;28;8855;-62
2022/08/23 07:51:21;;;;;;;;;7.00;7.00;;;;;25.27;45.58;99829.06;5071084;28;8824;-62
2022/08/23 07:53:49;;;;;;;;;9.80;9.20;;;;;25.37;45.36;99823.97;5070975;28;8820;-62
2022/08/23 07:56:17;;;;;;;;;6.00;6.00;;;;;25.47;45.17;99818.84;5071447;28;8844;-62
2022/08/23 07:58:45;;;;;;;;;9.00;9.00;;;;;25.58;44.41;99829.88;5069504;28;8980;-62
2022/08/23 08:01:14;;;;;;;;;8.20;7.80;;;;;25.63;44.56;99824.63;5070526;28;8958;-62
2022/08/23 08:03:42;;;;;;;;;8.00;7.80;;;;;25.71;44.62;99823.50;5070460;28;8880;-62
2022/08/23 08:06:11;;;;;;;;;8.80;8.00;;;;;25.79;44.37;99820.50;5070763;28;8847;-61
2022/08/23 08:08:40;;;;;;;;;8.20;8.00;;;;;25.85;43.78;99825.06;5070874;28;8840;-62
2022/08/23 08:11:08;;;;;;;;;7.20;7.20;;;;;25.91;43.65;99829.66;5071512;28;8832;-61
2022/08/23 08:13:36;;;;;;;;;9.20;9.20;;;;;26.02;44.11;99834.38;5071434;28;8847;-62
2022/08/23 08:16:04;;;;;;;;;8.80;8.80;;;;;26.14;43.17;99829.88;5072549;28;8844;-62
2022/08/23 08:18:33;;;;;;;;;8.00;8.00;;;;;26.28;43.28;99826.78;5072963;28;8852;-62
2022/08/23 08:21:01;;;;;;;;;6.80;6.80;;;;;26.39;42.74;99826.06;5071309;28;8971;-62
2022/08/23 08:23:29;;;;;;;;;6.80;6.80;;;;;26.51;42.85;99831.59;5071685;28;8836;-62
2022/08/23 08:25:56;;;;;;;;;7.60;7.00;;;;;26.63;43.04;99835.28;5071951;28;8836;-63
2022/08/23 08:28:24;;;;;;;;;11.80;11.80;;;;;26.71;42.61;99837.72;5072639;28;8832;-64
2022/08/23 08:30:52;;;;;;;;;7.80;7.80;;;;;26.79;42.48;99835.50;5072135;28;9525;-62
2022/08/23 08:33:20;;;;;;;;;8.60;8.60;;;;;26.90;42.23;99832.00;5075264;28;8844;-62
2022/08/23 08:35:50;;;;;;;;;8.00;8.00;;;;;27.01;42.05;99825.75;5075471;28;8828;-62
2022/08/23 08:38:28;;;;;;;;;9.00;9.00;;;;;27.14;41.84;99839.28;5075879;28;8832;-62
2022/08/23 08:40:57;;;;;;;;;6.40;6.40;;;;;27.19;41.89;99836.72;5074957;28;8832;-62
2022/08/23 08:43:24;;;;;;;;;7.80;7.80;;;;;27.16;42.43;99837.16;5075234;28;8863;-62
2022/08/23 08:45:53;;;;;;;;;6.20;6.20;;;;;27.19;42.18;99836.72;5075984;28;9616;-62
2022/08/23 08:48:25;;;;;;;;;8.60;8.00;;;;;27.24;41.59;99841.50;5075693;28;8890;-62
2022/08/23 08:50:53;;;;;;;;;8.40;8.40;;;;;27.31;42.02;99840.31;5075956;28;8903;-62
2022/08/23 08:53:20;;;;;;;;;8.80;8.80;;;;;27.39;41.45;99836.44;5075878;28;9000;-61
2022/08/23 08:55:48;;;;;;;;;8.80;8.80;;;;;27.49;41.25;99840.28;5075617;28;8828;-62
2022/08/23 08:58:19;;;;;;;;;8.00;8.00;;;;;27.57;41.34;99834.47;5075597;28;8844;-63
2022/08/23 09:00:47;;;;;;;;;9.00;9.00;;;;;27.69;41.28;99839.97;5076629;28;8832;-62
2022/08/23 09:03:20;;;;;;;;;8.20;7.80;;;;;27.80;41.12;99840.03;5076145;28;8859;-61
2022/08/23 09:05:48;;;;;;;;;7.00;7.00;;;;;27.90;41.12;99836.69;5075897;28;8831;-62
2022/08/23 09:08:16;;;;;;;;;8.80;8.80;;;;;28.00;41.15;99832.31;5075789;28;8856;-62
2022/08/23 09:10:43;;;;;;;;;8.00;8.00;;;;;28.12;41.26;99826.84;5074491;28;8941;-62
2022/08/23 09:13:11;;;;;;;;;9.20;9.00;;;;;28.24;41.05;99834.00;5073550;28;8852;-62
2022/08/23 09:15:39;;;;;;;;;8.80;8.00;;;;;28.39;40.41;99826.19;5075059;28;8843;-62
2022/08/23 09:18:07;;;;;;;;;8.80;8.80;;;;;28.54;40.57;99828.41;5075855;28;8832;-61
2022/08/23 09:20:35;;;;;;;;;8.20;7.80;;;;;28.63;39.82;99836.03;5074837;28;8824;-61
2022/08/23 09:23:04;;;;;;;;;9.60;9.60;;;;;28.77;40.07;99831.97;5074804;28;8856;-62
2022/08/23 09:25:32;;;;;;;;;9.00;9.00;;;;;28.89;40.19;99832.75;5073385;28;8905;-62
2022/08/23 09:28:00;;;;;;;;;8.60;8.00;;;;;29.03;39.78;99831.44;5074126;28;8836;-61
2022/08/23 09:30:28;;;;;;;;;9.00;8.80;;;;;29.20;39.08;99831.50;5074466;28;8846;-62
2022/08/23 09:32:56;;;;;;;;;9.60;9.00;;;;;29.33;39.18;99831.19;5074009;28;9010;-62
2022/08/23 09:35:24;;;;;;;;;8.80;8.20;;;;;29.42;39.00;99833.28;5074491;28;8840;-62
2022/08/23 09:37:52;;;;;;;;;8.00;8.00;;;;;29.49;39.15;99836.72;5074595;28;8851;-61
2022/08/23 09:40:20;;;;;;;;;8.40;8.40;;;;;29.61;38.68;99828.47;5072457;28;8948;-62
2022/08/23 09:42:48;;;;;;;;;8.60;8.60;;;;;29.78;38.86;99826.56;5072707;28;8888;-61
2022/08/23 09:45:15;;;;;;;;;8.60;8.60;;;;;30.02;38.59;99831.66;5072248;28;8967;-61
2022/08/23 09:47:43;;;;;;;;;8.60;8.20;;;;;30.23;38.33;99830.09;5073011;28;8970;-62
2022/08/23 09:50:11;;;;;;;;;8.20;7.80;;;;;30.43;38.29;99827.66;5072267;28;8831;-62
2022/08/23 09:52:39;;;;;;;;;9.00;8.60;;;;;30.74;37.88;99830.63;5073122;28;8848;-62
2022/08/23 09:55:06;;;;;;;;;7.40;7.40;;;;;31.19;37.13;99825.72;5073531;28;8848;-63
2022/08/23 09:57:34;;;;;;;;;11.00;10.00;;;;;31.74;36.18;99818.03;5072810;28;8844;-61
2022/08/23 10:00:02;;;;;;;;;10.00;8.20;;;;;32.35;35.80;99815.53;5073955;28;9471;-61
2022/08/23 10:02:30;;;;;;;;;8.80;8.60;;;;;33.05;34.86;99828.88;5073695;28;8852;-62
2022/08/23 10:04:58;;;;;;;;;7.80;7.00;;;;;33.63;34.31;99817.47;5073110;28;9615;-62
2022/08/23 10:07:29;;;;;;;;;8.20;8.00;;;;;34.16;33.76;99814.22;5091376;28;8957;-62
2022/08/23 10:09:57;;;;;;;;;8.20;7.60;;;;;34.64;33.02;99816.38;5093879;28;8938;-62
2022/08/23 10:12:25;;;;;;;;;9.00;8.40;;;;;35.07;32.46;99805.44;5090373;28;8830;-62
2022/08/23 10:14:53;;;;;;;;;9.60;9.00;;;;;35.44;32.15;99810.50;5092822;28;8811;-63
2022/08/23 10:17:21;;;;;;;;;6.20;6.20;;;;;35.81;31.96;99806.13;5095574;28;8840;-62
2022/08/23 10:19:48;;;;;;;;;8.80;8.40;;;;;36.25;31.26;99818.81;5094950;28;9839;-62
2022/08/23 10:22:16;;;;;;;;;7.00;7.00;;;;;36.66;31.76;99808.94;5094178;28;8823;-62
2022/08/23 10:24:44;;;;;;;;;9.80;9.80;;;;;37.07;30.96;99812.09;5093485;28;9006;-63
2022/08/23 10:29:54;;;;;;;;;9.60;9.40;;;;;37.70;30.03;99810.66;5090663;28;8851;-63
2022/08/23 10:32:22;;;;;;;;;8.40;8.40;;;;;37.75;29.56;99811.41;5091676;28;8855;-63
2022/08/23 10:34:49;;;;;;;;;9.80;9.20;;;;;37.95;29.81;99805.56;5094572;28;8839;-62
2022/08/23 10:37:17;;;;;;;;;8.80;8.60;;;;;38.12;29.59;99808.59;5095463;28;8870;-63
2022/08/23 10:39:46;;;;;;;;;8.00;8.00;;;;;37.52;30.74;99806.78;5094684;28;8835;-62
2022/08/23 10:42:13;;;;;;;;;8.80;8.80;;;;;36.58;32.03;99809.56;5094371;28;8866;-63
2022/08/23 10:44:42;;;;;;;;;8.00;8.00;;;;;36.58;31.90;99795.69;5094519;28;8945;-62
2022/08/23 10:47:09;;;;;;;;;8.00;8.00;;;;;37.18;30.88;99799.72;5095050;28;8968;-62
2022/08/23 10:49:37;;;;;;;;;8.00;8.00;;;;;37.65;30.23;99796.84;5095064;28;8848;-62
2022/08/23 10:52:06;;;;;;;;;8.40;8.40;;;;;38.10;30.10;99794.16;5094154;28;8830;-63
2022/08/23 10:54:44;;;;;;;;;8.00;8.00;;;;;38.54;29.47;99786.09;5093798;28;8968;-63
2022/08/23 10:57:12;;;;;;;;;8.00;7.40;;;;;38.94;29.01;99788.13;5094213;28;8830;-62
2022/08/23 10:59:40;;;;;;;;;7.40;7.40;;;;;39.15;28.31;99785.72;5094252;28;8855;-63
2022/08/23 11:02:07;;;;;;;;;8.00;7.00;;;;;38.62;29.86;99790.16;5094488;28;8826;-62
2022/08/23 11:04:35;;;;;;;;;6.40;6.40;;;;;37.62;30.82;99791.88;5093087;28;8883;-62
2022/08/23 11:07:03;;;;;;;;;8.20;7.80;;;;;37.31;30.52;99788.69;5093930;28;8981;-63
2022/08/23 11:09:31;;;;;;;;;8.20;8.20;;;;;37.12;30.84;99790.66;5093653;28;8842;-62
2022/08/23 11:11:59;;;;;;;;;7.20;7.20;;;;;37.10;30.75;99794.84;5094141;28;8845;-62
2022/08/23 11:14:26;;;;;;;;;9.40;9.00;;;;;37.79;30.14;99784.63;5094029;28;8953;-62
2022/08/23 11:16:54;;;;;;;;;8.00;8.00;;;;;37.72;30.04;99792.56;5093856;28;9014;-63
2022/08/23 11:19:22;;;;;;;;;9.00;8.00;;;;;37.48;30.29;99785.41;5093207;28;8830;-63
2022/08/23 11:21:50;;;;;;;;;8.00;8.00;;;;;37.77;30.38;99781.31;5092451;28;8850;-62
2022/08/23 11:24:21;;;;;;;;;6.80;6.60;;;;;37.18;30.87;99781.09;5092099;28;9992;-63
2022/08/23 11:26:50;;;;;;;;;7.80;7.80;;;;;37.23;30.83;99783.81;5091283;28;8825;-62
2022/08/23 11:29:17;;;;;;;;;8.60;8.60;;;;;37.48;30.45;99777.06;5090930;28;8845;-63
2022/08/23 11:31:46;;;;;;;;;9.40;9.00;;;;;37.56;30.46;99785.56;5091970;28;8856;-62
2022/08/23 11:34:14;;;;;;;;;8.00;8.00;;;;;37.86;30.10;99784.25;5085995;28;8846;-62
2022/08/23 11:36:42;;;;;;;;;7.20;7.00;;;;;37.56;30.11;99780.00;5071345;28;8896;-63
2022/08/23 11:39:10;;;;;;;;;7.20;7.20;;;;;37.27;30.19;99779.31;5071909;28;8836;-63
2022/08/23 11:41:38;;;;;;;;;8.80;7.40;;;;;38.04;29.32;99780.63;5084371;28;8858;-63
2022/08/23 11:44:06;;;;;;;;;6.80;6.80;;;;;38.70;28.62;99778.28;5091903;28;8841;-62
2022/08/23 11:46:41;;;;;;;;;7.00;7.00;;;;;39.20;28.56;99772.47;5089810;28;8814;-62
2022/08/23 11:49:09;;;;;;;;;5.20;5.20;;;;;39.93;27.06;99770.19;5092580;28;8866;-63
2022/08/23 11:51:37;;;;;;;;;7.00;7.00;;;;;40.20;27.39;99764.50;5092128;28;9651;-62
2022/08/23 11:54:04;;;;;;;;;7.20;7.00;;;;;39.23;28.27;99777.44;5092885;28;8845;-62